NKS940 KDTW-KLAS
Flight info
| Callsign | NKS940 |
|---|---|
| Flight time | 3h 59m |
| Altitude | 34000 |
| Route | KAYLN3 SMUUV DCT OBK DCT IOW J60 HVE DCT GGAPP CHOWW4 |
| Aircraft | A320/M-SDE3FGHIRWY/LB1 |
Departure
| Time | 2026-05-07 12:02 |
|---|---|
| Airport | Detroit Metropolitan Wayne County Airport (KDTW) |
Arrival
| Time | 2026-05-07 16:02 |
|---|---|
| Airport | Harry Reid International Airport (KLAS) |
| Time | Latitude | Longitude | Altitude | Speed | Heading |
|---|---|---|---|---|---|
| 2026-05-07 11:47 | 42.22200 | -83.35185 | 648 ft | 0 kts | 36° |
| 2026-05-07 11:53 | 42.22185 | -83.35199 | 649 ft | 4 kts | 36° |
| 2026-05-07 11:54 | 42.22163 | -83.35220 | 649 ft | 2 kts | 36° |
| 2026-05-07 11:54 | 42.22147 | -83.35239 | 647 ft | 4 kts | 68° |
| 2026-05-07 11:54 | 42.22148 | -83.35266 | 647 ft | 4 kts | 140° |
| 2026-05-07 11:54 | 42.22167 | -83.35283 | 649 ft | 1 kts | 149° |
| 2026-05-07 11:55 | 42.22168 | -83.35284 | 647 ft | 0 kts | 149° |
| 2026-05-07 11:56 | 42.22164 | -83.35281 | 647 ft | 3 kts | 149° |
| 2026-05-07 11:56 | 42.22128 | -83.35252 | 647 ft | 9 kts | 149° |
| 2026-05-07 11:57 | 42.22048 | -83.35236 | 647 ft | 15 kts | 200° |
| 2026-05-07 11:57 | 42.21940 | -83.35313 | 647 ft | 19 kts | 209° |
| 2026-05-07 11:57 | 42.21826 | -83.35320 | 646 ft | 11 kts | 128° |
| 2026-05-07 11:57 | 42.21826 | -83.35197 | 647 ft | 16 kts | 88° |
| 2026-05-07 11:58 | 42.21829 | -83.35028 | 647 ft | 19 kts | 89° |
| 2026-05-07 11:58 | 42.21832 | -83.34844 | 647 ft | 21 kts | 88° |
| 2026-05-07 11:58 | 42.21836 | -83.34644 | 648 ft | 22 kts | 90° |
| 2026-05-07 11:58 | 42.21849 | -83.34514 | 648 ft | 14 kts | 51° |
| 2026-05-07 11:59 | 42.21945 | -83.34435 | 647 ft | 19 kts | 28° |
| 2026-05-07 11:59 | 42.22078 | -83.34337 | 647 ft | 24 kts | 28° |
| 2026-05-07 11:59 | 42.22235 | -83.34222 | 648 ft | 26 kts | 28° |
| 2026-05-07 11:59 | 42.22399 | -83.34101 | 647 ft | 27 kts | 28° |
| 2026-05-07 12:00 | 42.22565 | -83.33979 | 649 ft | 26 kts | 28° |
| 2026-05-07 12:00 | 42.22715 | -83.33868 | 647 ft | 19 kts | 28° |
| 2026-05-07 12:00 | 42.22812 | -83.33796 | 647 ft | 13 kts | 28° |
| 2026-05-07 12:00 | 42.22860 | -83.33730 | 646 ft | 7 kts | 86° |
| 2026-05-07 12:01 | 42.22834 | -83.33656 | 645 ft | 9 kts | 118° |
| 2026-05-07 12:01 | 42.22801 | -83.33639 | 645 ft | 5 kts | 195° |
| 2026-05-07 12:01 | 42.22758 | -83.33669 | 646 ft | 12 kts | 209° |
| 2026-05-07 12:01 | 42.22481 | -83.33873 | 647 ft | 81 kts | 208° |
| 2026-05-07 12:02 | 42.21807 | -83.34369 | 647 ft | 137 kts | 208° |
| 2026-05-07 12:02 | 42.20855 | -83.35076 | 837 ft | 164 kts | 210° |
| 2026-05-07 12:02 | 42.19886 | -83.35852 | 1528 ft | 162 kts | 222° |
| 2026-05-07 12:02 | 42.19162 | -83.36997 | 2208 ft | 160 kts | 234° |
| 2026-05-07 12:03 | 42.18483 | -83.38209 | 2665 ft | 168 kts | 234° |
| 2026-05-07 12:03 | 42.17729 | -83.39551 | 2877 ft | 191 kts | 235° |
| 2026-05-07 12:03 | 42.16893 | -83.41047 | 3093 ft | 214 kts | 236° |
| 2026-05-07 12:03 | 42.15934 | -83.42763 | 3357 ft | 239 kts | 235° |
| 2026-05-07 12:04 | 42.14892 | -83.44618 | 3866 ft | 254 kts | 235° |
| 2026-05-07 12:04 | 42.13831 | -83.46498 | 4649 ft | 257 kts | 235° |
| 2026-05-07 12:04 | 42.12745 | -83.48416 | 5479 ft | 258 kts | 235° |
| 2026-05-07 12:04 | 42.12455 | -83.48929 | 5696 ft | 259 kts | 235° |
| 2026-05-07 12:05 | 42.11358 | -83.50866 | 6528 ft | 260 kts | 234° |
| 2026-05-07 12:05 | 42.10258 | -83.52808 | 7320 ft | 262 kts | 235° |
| 2026-05-07 12:05 | 42.09151 | -83.54765 | 8079 ft | 264 kts | 235° |
| 2026-05-07 12:05 | 42.08029 | -83.56743 | 8808 ft | 267 kts | 235° |
| 2026-05-07 12:06 | 42.06984 | -83.58813 | 9524 ft | 268 kts | 246° |
| 2026-05-07 12:06 | 42.06454 | -83.61202 | 10235 ft | 268 kts | 265° |
| 2026-05-07 12:06 | 42.06564 | -83.63689 | 10965 ft | 269 kts | 283° |
| 2026-05-07 12:06 | 42.07303 | -83.66096 | 11215 ft | 292 kts | 301° |
| 2026-05-07 12:07 | 42.08530 | -83.68390 | 11345 ft | 312 kts | 303° |
| 2026-05-07 12:07 | 42.09841 | -83.70790 | 11756 ft | 322 kts | 303° |
| 2026-05-07 12:07 | 42.11168 | -83.73217 | 12344 ft | 323 kts | 303° |
| 2026-05-07 12:07 | 42.12500 | -83.75668 | 12992 ft | 325 kts | 303° |
| 2026-05-07 12:08 | 42.13828 | -83.78125 | 13625 ft | 325 kts | 303° |
| 2026-05-07 12:08 | 42.15163 | -83.80602 | 14233 ft | 327 kts | 302° |
| 2026-05-07 12:08 | 42.16498 | -83.83086 | 14797 ft | 329 kts | 302° |
| 2026-05-07 12:08 | 42.17846 | -83.85594 | 15341 ft | 331 kts | 302° |
| 2026-05-07 12:09 | 42.18729 | -83.87240 | 15690 ft | 332 kts | 302° |
| 2026-05-07 12:09 | 42.19197 | -83.88111 | 15876 ft | 332 kts | 302° |
| 2026-05-07 12:09 | 42.20557 | -83.90642 | 16391 ft | 334 kts | 302° |
| 2026-05-07 12:09 | 42.21929 | -83.93195 | 16905 ft | 336 kts | 301° |
| 2026-05-07 12:10 | 42.23301 | -83.95753 | 17424 ft | 338 kts | 301° |
| 2026-05-07 12:10 | 42.24683 | -83.98334 | 17920 ft | 340 kts | 301° |
| 2026-05-07 12:10 | 42.26069 | -84.00934 | 18423 ft | 342 kts | 301° |
| 2026-05-07 12:10 | 42.27462 | -84.03547 | 18938 ft | 344 kts | 301° |
| 2026-05-07 12:11 | 42.28845 | -84.06140 | 19429 ft | 346 kts | 300° |
| 2026-05-07 12:11 | 42.30252 | -84.08777 | 19913 ft | 348 kts | 300° |
| 2026-05-07 12:11 | 42.31671 | -84.11439 | 20385 ft | 350 kts | 300° |
| 2026-05-07 12:11 | 42.32582 | -84.13150 | 20692 ft | 351 kts | 300° |
| 2026-05-07 12:12 | 42.33496 | -84.14865 | 20971 ft | 352 kts | 300° |
| 2026-05-07 12:12 | 42.34933 | -84.17561 | 21392 ft | 354 kts | 300° |
| 2026-05-07 12:12 | 42.36374 | -84.20269 | 21807 ft | 356 kts | 300° |
| 2026-05-07 12:12 | 42.37824 | -84.23002 | 22204 ft | 358 kts | 299° |
| 2026-05-07 12:13 | 42.39276 | -84.25744 | 22615 ft | 359 kts | 299° |
| 2026-05-07 12:13 | 42.40732 | -84.28497 | 23003 ft | 361 kts | 299° |
| 2026-05-07 12:13 | 42.42025 | -84.31381 | 23388 ft | 356 kts | 290° |
| 2026-05-07 12:13 | 42.42869 | -84.34508 | 23763 ft | 353 kts | 280° |
| 2026-05-07 12:14 | 42.43249 | -84.37771 | 24136 ft | 351 kts | 271° |
| 2026-05-07 12:14 | 42.43334 | -84.41074 | 24494 ft | 352 kts | 270° |
| 2026-05-07 12:14 | 42.43417 | -84.44390 | 24847 ft | 353 kts | 270° |
| 2026-05-07 12:14 | 42.43502 | -84.47716 | 25214 ft | 354 kts | 270° |
| 2026-05-07 12:15 | 42.43587 | -84.51054 | 25555 ft | 356 kts | 270° |
| 2026-05-07 12:15 | 42.43672 | -84.54405 | 25884 ft | 357 kts | 270° |
| 2026-05-07 12:15 | 42.43754 | -84.57769 | 26221 ft | 359 kts | 270° |
| 2026-05-07 12:15 | 42.43841 | -84.61148 | 26551 ft | 360 kts | 270° |
| 2026-05-07 12:16 | 42.43928 | -84.64541 | 26882 ft | 362 kts | 270° |
| 2026-05-07 12:16 | 42.44014 | -84.67902 | 27200 ft | 363 kts | 270° |
| 2026-05-07 12:16 | 42.44099 | -84.71327 | 27523 ft | 364 kts | 269° |
| 2026-05-07 12:16 | 42.44179 | -84.74736 | 27940 ft | 362 kts | 269° |
| 2026-05-07 12:17 | 42.44258 | -84.78140 | 28396 ft | 360 kts | 269° |
| 2026-05-07 12:17 | 42.44335 | -84.81519 | 28828 ft | 359 kts | 269° |
| 2026-05-07 12:17 | 42.44412 | -84.84883 | 29261 ft | 357 kts | 269° |
| 2026-05-07 12:17 | 42.44489 | -84.88227 | 29706 ft | 354 kts | 269° |
| 2026-05-07 12:18 | 42.44562 | -84.91555 | 30121 ft | 353 kts | 268° |
| 2026-05-07 12:18 | 42.44635 | -84.94867 | 30542 ft | 351 kts | 268° |
| 2026-05-07 12:18 | 42.44708 | -84.98169 | 30928 ft | 351 kts | 269° |
| 2026-05-07 12:18 | 42.44780 | -85.01466 | 31299 ft | 350 kts | 269° |
| 2026-05-07 12:19 | 42.44851 | -85.04760 | 31637 ft | 350 kts | 269° |
| 2026-05-07 12:19 | 42.44924 | -85.08058 | 31968 ft | 351 kts | 269° |
| 2026-05-07 12:19 | 42.44998 | -85.11360 | 32307 ft | 351 kts | 269° |
| 2026-05-07 12:19 | 42.45069 | -85.14660 | 32645 ft | 351 kts | 269° |
| 2026-05-07 12:20 | 42.45137 | -85.17960 | 32985 ft | 351 kts | 269° |
| 2026-05-07 12:20 | 42.45203 | -85.21259 | 33324 ft | 351 kts | 269° |
| 2026-05-07 12:20 | 42.45267 | -85.24562 | 33654 ft | 350 kts | 269° |
| 2026-05-07 12:20 | 42.45328 | -85.27861 | 33934 ft | 351 kts | 269° |
| 2026-05-07 12:21 | 42.45387 | -85.31176 | 34015 ft | 354 kts | 269° |
| 2026-05-07 12:21 | 42.45507 | -85.37981 | 34025 ft | 368 kts | 269° |
| 2026-05-07 12:22 | 42.45631 | -85.44940 | 34029 ft | 371 kts | 269° |
| 2026-05-07 12:22 | 42.45758 | -85.51925 | 34037 ft | 371 kts | 269° |
| 2026-05-07 12:23 | 42.45876 | -85.58916 | 34032 ft | 371 kts | 269° |
| 2026-05-07 12:23 | 42.45989 | -85.65913 | 34039 ft | 371 kts | 269° |
| 2026-05-07 12:24 | 42.46098 | -85.72891 | 34046 ft | 370 kts | 269° |
| 2026-05-07 12:24 | 42.46201 | -85.79869 | 34045 ft | 371 kts | 269° |
| 2026-05-07 12:25 | 42.46299 | -85.86848 | 34048 ft | 371 kts | 269° |
| 2026-05-07 12:25 | 42.46398 | -85.93779 | 34047 ft | 371 kts | 269° |
| 2026-05-07 12:26 | 42.46490 | -86.00758 | 34046 ft | 371 kts | 269° |
| 2026-05-07 12:26 | 42.46558 | -86.06604 | 34046 ft | 371 kts | 269° |
| 2026-05-07 12:27 | 42.46517 | -86.13589 | 34049 ft | 370 kts | 262° |
| 2026-05-07 12:27 | 42.45654 | -86.20463 | 34051 ft | 371 kts | 261° |
| 2026-05-07 12:28 | 42.44783 | -86.27343 | 34051 ft | 371 kts | 261° |
| 2026-05-07 12:28 | 42.43909 | -86.34219 | 34053 ft | 371 kts | 261° |
| 2026-05-07 12:29 | 42.43034 | -86.41052 | 34054 ft | 371 kts | 260° |
| 2026-05-07 12:29 | 42.42145 | -86.47938 | 34054 ft | 372 kts | 260° |
| 2026-05-07 12:30 | 42.41257 | -86.54830 | 34056 ft | 372 kts | 260° |
| 2026-05-07 12:30 | 42.40363 | -86.61723 | 34058 ft | 372 kts | 260° |
| 2026-05-07 12:31 | 42.39462 | -86.68624 | 34062 ft | 373 kts | 260° |
| 2026-05-07 12:31 | 42.38555 | -86.75524 | 34064 ft | 373 kts | 260° |
| 2026-05-07 12:32 | 42.37640 | -86.82427 | 34066 ft | 373 kts | 260° |
| 2026-05-07 12:32 | 42.36728 | -86.89330 | 34069 ft | 373 kts | 260° |
| 2026-05-07 12:33 | 42.35347 | -86.99677 | 34071 ft | 373 kts | 260° |
| 2026-05-07 12:33 | 42.34423 | -87.06572 | 34072 ft | 372 kts | 260° |
| 2026-05-07 12:34 | 42.33496 | -87.13445 | 34070 ft | 372 kts | 260° |
| 2026-05-07 12:34 | 42.32562 | -87.20311 | 34074 ft | 371 kts | 260° |
| 2026-05-07 12:35 | 42.31627 | -87.27163 | 34078 ft | 371 kts | 260° |
| 2026-05-07 12:35 | 42.30699 | -87.33956 | 34084 ft | 370 kts | 260° |
| 2026-05-07 12:36 | 42.29760 | -87.40783 | 34086 ft | 369 kts | 260° |
| 2026-05-07 12:36 | 42.28823 | -87.47579 | 34084 ft | 368 kts | 260° |
| 2026-05-07 12:37 | 42.27890 | -87.54360 | 34083 ft | 367 kts | 260° |
| 2026-05-07 12:37 | 42.26949 | -87.61129 | 34087 ft | 366 kts | 260° |
| 2026-05-07 12:38 | 42.26008 | -87.67874 | 34088 ft | 365 kts | 260° |
| 2026-05-07 12:38 | 42.25057 | -87.74610 | 34089 ft | 365 kts | 259° |
| 2026-05-07 12:39 | 42.24106 | -87.81323 | 34087 ft | 364 kts | 259° |
| 2026-05-07 12:39 | 42.23160 | -87.88024 | 34090 ft | 363 kts | 259° |
| 2026-05-07 12:40 | 42.22206 | -87.94708 | 34096 ft | 363 kts | 259° |
| 2026-05-07 12:40 | 42.21120 | -88.01346 | 34094 ft | 362 kts | 258° |
| 2026-05-07 12:41 | 42.19933 | -88.07944 | 34088 ft | 362 kts | 257° |
| 2026-05-07 12:41 | 42.18751 | -88.14533 | 34089 ft | 361 kts | 257° |
| 2026-05-07 12:42 | 42.17585 | -88.21123 | 34081 ft | 362 kts | 258° |
| 2026-05-07 12:42 | 42.16435 | -88.27676 | 34077 ft | 362 kts | 258° |
| 2026-05-07 12:43 | 42.15268 | -88.34273 | 34075 ft | 362 kts | 257° |
| 2026-05-07 12:43 | 42.14091 | -88.40869 | 34070 ft | 362 kts | 257° |
| 2026-05-07 12:44 | 42.12905 | -88.47468 | 34069 ft | 363 kts | 257° |
| 2026-05-07 12:44 | 42.11722 | -88.54084 | 34070 ft | 363 kts | 257° |
| 2026-05-07 12:45 | 42.10533 | -88.60710 | 34067 ft | 364 kts | 257° |
| 2026-05-07 12:45 | 42.09334 | -88.67349 | 34068 ft | 365 kts | 257° |
| 2026-05-07 12:46 | 42.08128 | -88.74000 | 34067 ft | 366 kts | 257° |
| 2026-05-07 12:46 | 42.06915 | -88.80656 | 34068 ft | 366 kts | 257° |
| 2026-05-07 12:47 | 42.05697 | -88.87319 | 34069 ft | 367 kts | 257° |
| 2026-05-07 12:47 | 42.04476 | -88.93999 | 34069 ft | 368 kts | 257° |
| 2026-05-07 12:48 | 42.03243 | -89.00691 | 34071 ft | 369 kts | 257° |
| 2026-05-07 12:48 | 42.02003 | -89.07397 | 34074 ft | 369 kts | 257° |
| 2026-05-07 12:49 | 42.00763 | -89.14100 | 34071 ft | 370 kts | 257° |
| 2026-05-07 12:49 | 41.99517 | -89.20811 | 34070 ft | 371 kts | 257° |
| 2026-05-07 12:50 | 41.98278 | -89.27469 | 34092 ft | 369 kts | 257° |
| 2026-05-07 12:50 | 41.97033 | -89.34132 | 34099 ft | 367 kts | 257° |
| 2026-05-07 12:51 | 41.95784 | -89.40769 | 34098 ft | 366 kts | 257° |
| 2026-05-07 12:51 | 41.94530 | -89.47409 | 34092 ft | 366 kts | 257° |
| 2026-05-07 12:52 | 41.93276 | -89.54032 | 34088 ft | 366 kts | 257° |
| 2026-05-07 12:52 | 41.92022 | -89.60652 | 34088 ft | 366 kts | 257° |
| 2026-05-07 12:53 | 41.90756 | -89.67276 | 34086 ft | 366 kts | 257° |
| 2026-05-07 12:53 | 41.89491 | -89.73907 | 34087 ft | 366 kts | 257° |
| 2026-05-07 12:54 | 41.88228 | -89.80537 | 34083 ft | 367 kts | 257° |
| 2026-05-07 12:54 | 41.86954 | -89.87171 | 34084 ft | 367 kts | 257° |
| 2026-05-07 12:55 | 41.85670 | -89.93808 | 34078 ft | 368 kts | 257° |
| 2026-05-07 12:55 | 41.84383 | -90.00448 | 34077 ft | 368 kts | 257° |
| 2026-05-07 12:56 | 41.83103 | -90.07043 | 34077 ft | 368 kts | 257° |
| 2026-05-07 12:56 | 41.81804 | -90.13687 | 34079 ft | 368 kts | 257° |
| 2026-05-07 12:57 | 41.80498 | -90.20326 | 34074 ft | 368 kts | 257° |
| 2026-05-07 12:57 | 41.79200 | -90.26961 | 34073 ft | 368 kts | 257° |
| 2026-05-07 12:58 | 41.77898 | -90.33593 | 34075 ft | 368 kts | 257° |
| 2026-05-07 12:58 | 41.76589 | -90.40220 | 34069 ft | 368 kts | 257° |
| 2026-05-07 12:59 | 41.75280 | -90.46847 | 34071 ft | 368 kts | 257° |
| 2026-05-07 12:59 | 41.73964 | -90.53474 | 34068 ft | 368 kts | 257° |
| 2026-05-07 13:00 | 41.72644 | -90.60107 | 34063 ft | 368 kts | 257° |
| 2026-05-07 13:00 | 41.71322 | -90.66728 | 34058 ft | 368 kts | 257° |
| 2026-05-07 13:01 | 41.69992 | -90.73338 | 34057 ft | 368 kts | 257° |
| 2026-05-07 13:01 | 41.68653 | -90.79950 | 34052 ft | 368 kts | 256° |
| 2026-05-07 13:02 | 41.67314 | -90.86555 | 34049 ft | 368 kts | 256° |
| 2026-05-07 13:02 | 41.65981 | -90.93113 | 34044 ft | 368 kts | 257° |
| 2026-05-07 13:03 | 41.64634 | -90.99718 | 34031 ft | 368 kts | 257° |
| 2026-05-07 13:03 | 41.63290 | -91.06318 | 34043 ft | 368 kts | 257° |
| 2026-05-07 13:04 | 41.61943 | -91.12914 | 34034 ft | 368 kts | 257° |
| 2026-05-07 13:04 | 41.60588 | -91.19517 | 34034 ft | 369 kts | 256° |
| 2026-05-07 13:05 | 41.59223 | -91.26125 | 34043 ft | 369 kts | 257° |
| 2026-05-07 13:05 | 41.57861 | -91.32691 | 34044 ft | 369 kts | 257° |
| 2026-05-07 13:06 | 41.56493 | -91.39311 | 34044 ft | 370 kts | 257° |
| 2026-05-07 13:06 | 41.55116 | -91.45914 | 34043 ft | 370 kts | 256° |
| 2026-05-07 13:07 | 41.53729 | -91.52535 | 34041 ft | 370 kts | 256° |
| 2026-05-07 13:07 | 41.52338 | -91.59155 | 34033 ft | 371 kts | 257° |
| 2026-05-07 13:08 | 41.51460 | -91.65899 | 34036 ft | 369 kts | 264° |
| 2026-05-07 13:08 | 41.50834 | -91.72699 | 34037 ft | 369 kts | 264° |
| 2026-05-07 13:09 | 41.50199 | -91.79498 | 34030 ft | 369 kts | 263° |
| 2026-05-07 13:09 | 41.49555 | -91.86298 | 34033 ft | 370 kts | 263° |
| 2026-05-07 13:10 | 41.48906 | -91.93065 | 34031 ft | 370 kts | 263° |
| 2026-05-07 13:10 | 41.48251 | -91.99873 | 34034 ft | 370 kts | 263° |
| 2026-05-07 13:11 | 41.47593 | -92.06683 | 34019 ft | 371 kts | 263° |
| 2026-05-07 13:11 | 41.46928 | -92.13500 | 34017 ft | 371 kts | 263° |
| 2026-05-07 13:12 | 41.46258 | -92.20325 | 34023 ft | 371 kts | 263° |
| 2026-05-07 13:12 | 41.45597 | -92.27154 | 34018 ft | 372 kts | 263° |
| 2026-05-07 13:13 | 41.44926 | -92.33982 | 34016 ft | 372 kts | 263° |
| 2026-05-07 13:13 | 41.44246 | -92.40761 | 34022 ft | 372 kts | 263° |
| 2026-05-07 13:14 | 41.43554 | -92.47588 | 34024 ft | 371 kts | 263° |
| 2026-05-07 13:14 | 41.42866 | -92.54412 | 34016 ft | 372 kts | 263° |
| 2026-05-07 13:15 | 41.42174 | -92.61237 | 34016 ft | 372 kts | 263° |
| 2026-05-07 13:15 | 41.41476 | -92.68073 | 34026 ft | 372 kts | 263° |
| 2026-05-07 13:16 | 41.40776 | -92.74903 | 34026 ft | 372 kts | 263° |
| 2026-05-07 13:16 | 41.40071 | -92.81734 | 34026 ft | 372 kts | 263° |
| 2026-05-07 13:17 | 41.39362 | -92.88567 | 34027 ft | 373 kts | 263° |
| 2026-05-07 13:17 | 41.38647 | -92.95405 | 34031 ft | 373 kts | 263° |
| 2026-05-07 13:18 | 41.37928 | -93.02246 | 34024 ft | 373 kts | 263° |
| 2026-05-07 13:18 | 41.37208 | -93.09100 | 34023 ft | 374 kts | 263° |
| 2026-05-07 13:19 | 41.36476 | -93.15956 | 34025 ft | 374 kts | 263° |
| 2026-05-07 13:19 | 41.35740 | -93.22773 | 34023 ft | 375 kts | 263° |
| 2026-05-07 13:20 | 41.34999 | -93.29639 | 34025 ft | 375 kts | 263° |
| 2026-05-07 13:20 | 41.34260 | -93.36506 | 34019 ft | 375 kts | 264° |
| 2026-05-07 13:21 | 41.33509 | -93.43371 | 34026 ft | 375 kts | 263° |
| 2026-05-07 13:21 | 41.32751 | -93.50235 | 34025 ft | 375 kts | 264° |
| 2026-05-07 13:22 | 41.32119 | -93.55950 | 34024 ft | 376 kts | 263° |
| 2026-05-07 13:22 | 41.31224 | -93.63996 | 34030 ft | 376 kts | 264° |
| 2026-05-07 13:23 | 41.30467 | -93.70839 | 34030 ft | 377 kts | 264° |
| 2026-05-07 13:23 | 41.29699 | -93.77728 | 34030 ft | 377 kts | 264° |
| 2026-05-07 13:24 | 41.29050 | -93.83497 | 34029 ft | 377 kts | 264° |
| 2026-05-07 13:24 | 41.28272 | -93.90381 | 34024 ft | 377 kts | 263° |
| 2026-05-07 13:25 | 41.27494 | -93.97215 | 34023 ft | 376 kts | 263° |
| 2026-05-07 13:25 | 41.26709 | -94.04087 | 34024 ft | 376 kts | 264° |
| 2026-05-07 13:26 | 41.25916 | -94.10964 | 34016 ft | 377 kts | 264° |
| 2026-05-07 13:26 | 41.25115 | -94.17858 | 34010 ft | 378 kts | 264° |
| 2026-05-07 13:27 | 41.24315 | -94.24768 | 34017 ft | 379 kts | 264° |
| 2026-05-07 13:27 | 41.23509 | -94.31681 | 34018 ft | 379 kts | 264° |
| 2026-05-07 13:28 | 41.22694 | -94.38600 | 34015 ft | 379 kts | 264° |
| 2026-05-07 13:28 | 41.21872 | -94.45523 | 34014 ft | 380 kts | 264° |
| 2026-05-07 13:29 | 41.21047 | -94.52450 | 34023 ft | 380 kts | 264° |
| 2026-05-07 13:29 | 41.20218 | -94.59384 | 34014 ft | 380 kts | 264° |
| 2026-05-07 13:30 | 41.19392 | -94.66311 | 34023 ft | 380 kts | 264° |
| 2026-05-07 13:30 | 41.18550 | -94.73238 | 34021 ft | 380 kts | 264° |
| 2026-05-07 13:31 | 41.17716 | -94.80124 | 34016 ft | 381 kts | 264° |
| 2026-05-07 13:31 | 41.16863 | -94.87110 | 34009 ft | 381 kts | 264° |
| 2026-05-07 13:32 | 41.16015 | -94.94014 | 34009 ft | 382 kts | 264° |
| 2026-05-07 13:32 | 41.15155 | -95.00957 | 34012 ft | 382 kts | 265° |
| 2026-05-07 13:33 | 41.14294 | -95.07910 | 34010 ft | 382 kts | 265° |
| 2026-05-07 13:33 | 41.13435 | -95.14861 | 34011 ft | 382 kts | 265° |
| 2026-05-07 13:34 | 41.12127 | -95.25300 | 34366 ft | 383 kts | 265° |
| 2026-05-07 13:34 | 41.11689 | -95.28781 | 34720 ft | 383 kts | 265° |
| 2026-05-07 13:35 | 41.11250 | -95.32257 | 35039 ft | 383 kts | 265° |
| 2026-05-07 13:35 | 41.10807 | -95.35742 | 35324 ft | 383 kts | 265° |
| 2026-05-07 13:35 | 41.10370 | -95.39192 | 35597 ft | 383 kts | 264° |
| 2026-05-07 13:35 | 41.09926 | -95.42675 | 35871 ft | 384 kts | 264° |
| 2026-05-07 13:36 | 41.09478 | -95.46175 | 35989 ft | 385 kts | 264° |
| 2026-05-07 13:36 | 41.08583 | -95.53162 | 35996 ft | 384 kts | 264° |
| 2026-05-07 13:37 | 41.07687 | -95.60149 | 35995 ft | 384 kts | 264° |
| 2026-05-07 13:37 | 41.06786 | -95.67124 | 35991 ft | 384 kts | 264° |
| 2026-05-07 13:38 | 41.05881 | -95.74100 | 35995 ft | 384 kts | 264° |
| 2026-05-07 13:38 | 41.04970 | -95.81078 | 35996 ft | 385 kts | 264° |
| 2026-05-07 13:39 | 41.04053 | -95.88065 | 35999 ft | 385 kts | 264° |
| 2026-05-07 13:39 | 41.03129 | -95.95057 | 36003 ft | 385 kts | 264° |
| 2026-05-07 13:40 | 41.02202 | -96.02046 | 35998 ft | 385 kts | 264° |
| 2026-05-07 13:40 | 41.01279 | -96.08996 | 35998 ft | 386 kts | 265° |
| 2026-05-07 13:41 | 41.00339 | -96.16049 | 35995 ft | 387 kts | 265° |
| 2026-05-07 13:41 | 40.99394 | -96.23064 | 35993 ft | 387 kts | 265° |
| 2026-05-07 13:42 | 40.98443 | -96.30080 | 35992 ft | 387 kts | 265° |
| 2026-05-07 13:42 | 40.97494 | -96.37048 | 35993 ft | 387 kts | 265° |
| 2026-05-07 13:43 | 40.96534 | -96.44110 | 35998 ft | 388 kts | 265° |
| 2026-05-07 13:43 | 40.95576 | -96.51137 | 36001 ft | 388 kts | 265° |
| 2026-05-07 13:44 | 40.94620 | -96.58113 | 36011 ft | 388 kts | 264° |
| 2026-05-07 13:44 | 40.93648 | -96.65127 | 36009 ft | 388 kts | 264° |
| 2026-05-07 13:45 | 40.92665 | -96.72141 | 36014 ft | 388 kts | 264° |
| 2026-05-07 13:45 | 40.91789 | -96.79170 | 36018 ft | 386 kts | 267° |
| 2026-05-07 13:46 | 40.91175 | -96.86212 | 36020 ft | 386 kts | 268° |
| 2026-05-07 13:46 | 40.90579 | -96.93278 | 36019 ft | 387 kts | 268° |
| 2026-05-07 13:47 | 40.89923 | -97.00338 | 36016 ft | 387 kts | 267° |
| 2026-05-07 13:47 | 40.89237 | -97.07397 | 36016 ft | 387 kts | 267° |
| 2026-05-07 13:48 | 40.88549 | -97.14453 | 36014 ft | 387 kts | 267° |
| 2026-05-07 13:48 | 40.87860 | -97.21513 | 36008 ft | 388 kts | 267° |
| 2026-05-07 13:49 | 40.87171 | -97.28563 | 36005 ft | 388 kts | 267° |
| 2026-05-07 13:49 | 40.86465 | -97.35654 | 36001 ft | 388 kts | 267° |
| 2026-05-07 13:50 | 40.85758 | -97.42731 | 35999 ft | 389 kts | 267° |
| 2026-05-07 13:50 | 40.85055 | -97.49812 | 35995 ft | 389 kts | 267° |
| 2026-05-07 13:51 | 40.84349 | -97.56898 | 35989 ft | 389 kts | 267° |
| 2026-05-07 13:51 | 40.83629 | -97.63979 | 35985 ft | 389 kts | 267° |
| 2026-05-07 13:52 | 40.82907 | -97.71060 | 35984 ft | 389 kts | 267° |
| 2026-05-07 13:52 | 40.82177 | -97.78145 | 35982 ft | 390 kts | 267° |
| 2026-05-07 13:53 | 40.81445 | -97.85235 | 35983 ft | 390 kts | 266° |
| 2026-05-07 13:53 | 40.80715 | -97.92323 | 35984 ft | 390 kts | 266° |
| 2026-05-07 13:54 | 40.79977 | -97.99408 | 35987 ft | 390 kts | 266° |
| 2026-05-07 13:54 | 40.79233 | -98.06492 | 35982 ft | 390 kts | 266° |
| 2026-05-07 13:55 | 40.78480 | -98.13589 | 35979 ft | 391 kts | 266° |
| 2026-05-07 13:55 | 40.77729 | -98.20643 | 35976 ft | 391 kts | 266° |
| 2026-05-07 13:56 | 40.76970 | -98.27755 | 35977 ft | 392 kts | 266° |
| 2026-05-07 13:56 | 40.76205 | -98.34871 | 35978 ft | 392 kts | 266° |
| 2026-05-07 13:57 | 40.75433 | -98.41993 | 35985 ft | 392 kts | 266° |
| 2026-05-07 13:57 | 40.74656 | -98.49116 | 35994 ft | 392 kts | 266° |
| 2026-05-07 13:58 | 40.73874 | -98.56241 | 35990 ft | 393 kts | 266° |
| 2026-05-07 13:58 | 40.73091 | -98.63369 | 35992 ft | 393 kts | 266° |
| 2026-05-07 13:59 | 40.72304 | -98.70497 | 35990 ft | 393 kts | 266° |
| 2026-05-07 13:59 | 40.71508 | -98.77635 | 35990 ft | 393 kts | 266° |
| 2026-05-07 14:00 | 40.70702 | -98.84760 | 35989 ft | 393 kts | 265° |
| 2026-05-07 14:00 | 40.69898 | -98.91893 | 35992 ft | 393 kts | 266° |
| 2026-05-07 14:01 | 40.69095 | -98.99017 | 35983 ft | 393 kts | 265° |
| 2026-05-07 14:01 | 40.68287 | -99.06135 | 35979 ft | 393 kts | 265° |
| 2026-05-07 14:02 | 40.67470 | -99.13214 | 35979 ft | 394 kts | 265° |
| 2026-05-07 14:02 | 40.66639 | -99.20344 | 35979 ft | 394 kts | 265° |
| 2026-05-07 14:03 | 40.65809 | -99.27474 | 35981 ft | 394 kts | 265° |
| 2026-05-07 14:03 | 40.64977 | -99.34604 | 35982 ft | 394 kts | 265° |
| 2026-05-07 14:04 | 40.64141 | -99.41747 | 35983 ft | 395 kts | 265° |
| 2026-05-07 14:04 | 40.63302 | -99.48887 | 35980 ft | 394 kts | 265° |
| 2026-05-07 14:05 | 40.62453 | -99.56071 | 35979 ft | 395 kts | 265° |
| 2026-05-07 14:05 | 40.61604 | -99.63160 | 35978 ft | 395 kts | 265° |
| 2026-05-07 14:06 | 40.60756 | -99.70311 | 35980 ft | 396 kts | 265° |
| 2026-05-07 14:06 | 40.59898 | -99.77464 | 35979 ft | 396 kts | 264° |
| 2026-05-07 14:07 | 40.59028 | -99.84625 | 35989 ft | 396 kts | 264° |
| 2026-05-07 14:07 | 40.58153 | -99.91790 | 35985 ft | 397 kts | 264° |
| 2026-05-07 14:08 | 40.57274 | -99.98962 | 35991 ft | 397 kts | 264° |
| 2026-05-07 14:08 | 40.56392 | -100.06128 | 35978 ft | 397 kts | 264° |
| 2026-05-07 14:09 | 40.55504 | -100.13297 | 35983 ft | 397 kts | 264° |
| 2026-05-07 14:09 | 40.54608 | -100.20472 | 35991 ft | 398 kts | 264° |
| 2026-05-07 14:10 | 40.53712 | -100.27648 | 35989 ft | 398 kts | 264° |
| 2026-05-07 14:10 | 40.52814 | -100.34825 | 35991 ft | 398 kts | 264° |
| 2026-05-07 14:11 | 40.52062 | -100.40785 | 35992 ft | 398 kts | 264° |
| 2026-05-07 14:11 | 40.51148 | -100.47957 | 36000 ft | 398 kts | 264° |
| 2026-05-07 14:12 | 40.50080 | -100.56294 | 35992 ft | 398 kts | 264° |
| 2026-05-07 14:12 | 40.49313 | -100.62308 | 35993 ft | 398 kts | 264° |
| 2026-05-07 14:13 | 40.48389 | -100.69482 | 35997 ft | 398 kts | 264° |
| 2026-05-07 14:13 | 40.47462 | -100.76656 | 36001 ft | 399 kts | 264° |
| 2026-05-07 14:14 | 40.46529 | -100.83830 | 36009 ft | 399 kts | 264° |
| 2026-05-07 14:14 | 40.45586 | -100.91007 | 36007 ft | 399 kts | 263° |
| 2026-05-07 14:15 | 40.44625 | -100.98178 | 36007 ft | 399 kts | 263° |
| 2026-05-07 14:15 | 40.43662 | -101.05299 | 36007 ft | 399 kts | 263° |
| 2026-05-07 14:16 | 40.42693 | -101.12465 | 36004 ft | 399 kts | 263° |
| 2026-05-07 14:16 | 40.41722 | -101.19639 | 36007 ft | 399 kts | 263° |
| 2026-05-07 14:17 | 40.40739 | -101.26808 | 36007 ft | 399 kts | 263° |
| 2026-05-07 14:17 | 40.39751 | -101.33976 | 36009 ft | 399 kts | 263° |
| 2026-05-07 14:18 | 40.38761 | -101.41149 | 36003 ft | 400 kts | 263° |
| 2026-05-07 14:18 | 40.37760 | -101.48321 | 36005 ft | 400 kts | 263° |
| 2026-05-07 14:19 | 40.36760 | -101.55501 | 36005 ft | 400 kts | 263° |
| 2026-05-07 14:19 | 40.35754 | -101.62675 | 36006 ft | 400 kts | 263° |
| 2026-05-07 14:20 | 40.34742 | -101.69849 | 36004 ft | 400 kts | 263° |
| 2026-05-07 14:20 | 40.33735 | -101.77028 | 36005 ft | 401 kts | 263° |
| 2026-05-07 14:21 | 40.32719 | -101.84207 | 36006 ft | 401 kts | 262° |
| 2026-05-07 14:21 | 40.31690 | -101.91393 | 36009 ft | 401 kts | 262° |
| 2026-05-07 14:22 | 40.30663 | -101.98525 | 36014 ft | 401 kts | 262° |
| 2026-05-07 14:22 | 40.29635 | -102.05707 | 36020 ft | 401 kts | 262° |
| 2026-05-07 14:23 | 40.28596 | -102.12890 | 36026 ft | 401 kts | 262° |
| 2026-05-07 14:23 | 40.27548 | -102.20069 | 36031 ft | 401 kts | 262° |
| 2026-05-07 14:24 | 40.26500 | -102.27246 | 36035 ft | 401 kts | 262° |
| 2026-05-07 14:24 | 40.25443 | -102.34419 | 36046 ft | 401 kts | 262° |
| 2026-05-07 14:25 | 40.24379 | -102.41597 | 36039 ft | 401 kts | 262° |
| 2026-05-07 14:25 | 40.23315 | -102.48763 | 36049 ft | 401 kts | 262° |
| 2026-05-07 14:26 | 40.22249 | -102.55932 | 36049 ft | 402 kts | 262° |
| 2026-05-07 14:26 | 40.21181 | -102.63105 | 36041 ft | 402 kts | 262° |
| 2026-05-07 14:27 | 40.20107 | -102.70281 | 36049 ft | 402 kts | 262° |
| 2026-05-07 14:27 | 40.19025 | -102.77467 | 36053 ft | 403 kts | 262° |
| 2026-05-07 14:28 | 40.17941 | -102.84604 | 36061 ft | 403 kts | 262° |
| 2026-05-07 14:28 | 40.16847 | -102.91795 | 36058 ft | 404 kts | 262° |
| 2026-05-07 14:29 | 40.15750 | -102.98990 | 36061 ft | 404 kts | 262° |
| 2026-05-07 14:29 | 40.14644 | -103.06192 | 36063 ft | 404 kts | 262° |
| 2026-05-07 14:30 | 40.13529 | -103.13400 | 36069 ft | 405 kts | 262° |
| 2026-05-07 14:30 | 40.12410 | -103.20610 | 36072 ft | 405 kts | 262° |
| 2026-05-07 14:31 | 40.11289 | -103.27831 | 36070 ft | 405 kts | 263° |
| 2026-05-07 14:31 | 40.10164 | -103.35045 | 36075 ft | 405 kts | 263° |
| 2026-05-07 14:32 | 40.09033 | -103.42261 | 36072 ft | 406 kts | 262° |
| 2026-05-07 14:32 | 40.07897 | -103.49472 | 36072 ft | 405 kts | 263° |
| 2026-05-07 14:33 | 40.06759 | -103.56681 | 36072 ft | 406 kts | 263° |
| 2026-05-07 14:33 | 40.05614 | -103.63899 | 36073 ft | 406 kts | 263° |
| 2026-05-07 14:34 | 40.04461 | -103.71115 | 36076 ft | 406 kts | 263° |
| 2026-05-07 14:34 | 40.03297 | -103.78324 | 36083 ft | 406 kts | 262° |
| 2026-05-07 14:35 | 40.02133 | -103.85530 | 36082 ft | 406 kts | 262° |
| 2026-05-07 14:35 | 40.00966 | -103.92740 | 36087 ft | 406 kts | 262° |
| 2026-05-07 14:36 | 39.99800 | -103.99956 | 36091 ft | 407 kts | 262° |
| 2026-05-07 14:36 | 39.98635 | -104.07129 | 36097 ft | 407 kts | 262° |
| 2026-05-07 14:37 | 39.97453 | -104.14353 | 36102 ft | 407 kts | 262° |
| 2026-05-07 14:37 | 39.95671 | -104.25189 | 36111 ft | 407 kts | 262° |
| 2026-05-07 14:38 | 39.94472 | -104.32403 | 36110 ft | 407 kts | 262° |
| 2026-05-07 14:38 | 39.93279 | -104.39611 | 36124 ft | 407 kts | 262° |
| 2026-05-07 14:39 | 39.92077 | -104.46813 | 36118 ft | 407 kts | 262° |
| 2026-05-07 14:39 | 39.90866 | -104.54010 | 36123 ft | 407 kts | 262° |
| 2026-05-07 14:40 | 39.89659 | -104.61220 | 36124 ft | 407 kts | 262° |
| 2026-05-07 14:40 | 39.88388 | -104.68411 | 36128 ft | 408 kts | 260° |
| 2026-05-07 14:41 | 39.87012 | -104.75574 | 36119 ft | 407 kts | 260° |
| 2026-05-07 14:41 | 39.85615 | -104.82723 | 36121 ft | 408 kts | 260° |
| 2026-05-07 14:42 | 39.84231 | -104.89879 | 36122 ft | 408 kts | 260° |
| 2026-05-07 14:42 | 39.82853 | -104.97035 | 36117 ft | 408 kts | 260° |
| 2026-05-07 14:43 | 39.81478 | -105.04188 | 36123 ft | 408 kts | 260° |
| 2026-05-07 14:43 | 39.80095 | -105.11337 | 36127 ft | 408 kts | 260° |
| 2026-05-07 14:44 | 39.78698 | -105.18491 | 36125 ft | 408 kts | 260° |
| 2026-05-07 14:44 | 39.77311 | -105.25588 | 36125 ft | 408 kts | 259° |
| 2026-05-07 14:45 | 39.75910 | -105.32734 | 36148 ft | 408 kts | 259° |
| 2026-05-07 14:45 | 39.74507 | -105.39879 | 36168 ft | 408 kts | 259° |
| 2026-05-07 14:46 | 39.73105 | -105.47018 | 36181 ft | 408 kts | 259° |
| 2026-05-07 14:46 | 39.71680 | -105.54157 | 36217 ft | 408 kts | 259° |
| 2026-05-07 14:47 | 39.70260 | -105.61288 | 36262 ft | 408 kts | 259° |
| 2026-05-07 14:47 | 39.68846 | -105.68413 | 36276 ft | 407 kts | 259° |
| 2026-05-07 14:48 | 39.67427 | -105.75532 | 36282 ft | 407 kts | 259° |
| 2026-05-07 14:48 | 39.65988 | -105.82658 | 36307 ft | 408 kts | 259° |
| 2026-05-07 14:49 | 39.64550 | -105.89770 | 36319 ft | 407 kts | 259° |
| 2026-05-07 14:49 | 39.63115 | -105.96874 | 36329 ft | 407 kts | 259° |
| 2026-05-07 14:50 | 39.61676 | -106.03981 | 36333 ft | 407 kts | 259° |
| 2026-05-07 14:50 | 39.60236 | -106.11075 | 36336 ft | 407 kts | 259° |
| 2026-05-07 14:51 | 39.58782 | -106.18167 | 36345 ft | 407 kts | 259° |
| 2026-05-07 14:51 | 39.57329 | -106.25216 | 36347 ft | 408 kts | 259° |
| 2026-05-07 14:52 | 39.55867 | -106.32323 | 36352 ft | 409 kts | 259° |
| 2026-05-07 14:52 | 39.54406 | -106.39436 | 36349 ft | 409 kts | 259° |
| 2026-05-07 14:53 | 39.52933 | -106.46571 | 36350 ft | 410 kts | 259° |
| 2026-05-07 14:53 | 39.51450 | -106.53701 | 36349 ft | 411 kts | 259° |
| 2026-05-07 14:54 | 39.49961 | -106.60845 | 36340 ft | 411 kts | 259° |
| 2026-05-07 14:54 | 39.48460 | -106.68000 | 36338 ft | 412 kts | 259° |
| 2026-05-07 14:55 | 39.46948 | -106.75166 | 36339 ft | 413 kts | 259° |
| 2026-05-07 14:55 | 39.45433 | -106.82351 | 36343 ft | 414 kts | 259° |
| 2026-05-07 14:56 | 39.43914 | -106.89541 | 36339 ft | 415 kts | 258° |
| 2026-05-07 14:56 | 39.42220 | -106.96690 | 36339 ft | 417 kts | 256° |
| 2026-05-07 14:57 | 39.40398 | -107.03807 | 36335 ft | 417 kts | 256° |
| 2026-05-07 14:57 | 39.38572 | -107.10932 | 36336 ft | 417 kts | 256° |
| 2026-05-07 14:58 | 39.36772 | -107.18071 | 36340 ft | 418 kts | 256° |
| 2026-05-07 14:58 | 39.34974 | -107.25229 | 36346 ft | 419 kts | 256° |
| 2026-05-07 14:59 | 39.33177 | -107.32335 | 36354 ft | 419 kts | 256° |
| 2026-05-07 14:59 | 39.31356 | -107.39494 | 36357 ft | 420 kts | 256° |
| 2026-05-07 15:00 | 39.29534 | -107.46666 | 36360 ft | 421 kts | 256° |
| 2026-05-07 15:00 | 39.27710 | -107.53843 | 36361 ft | 421 kts | 256° |
| 2026-05-07 15:01 | 39.25876 | -107.61027 | 36359 ft | 422 kts | 256° |
| 2026-05-07 15:01 | 39.24029 | -107.68217 | 36355 ft | 422 kts | 256° |
| 2026-05-07 15:02 | 39.22173 | -107.75404 | 36351 ft | 423 kts | 256° |
| 2026-05-07 15:02 | 39.20630 | -107.81380 | 36343 ft | 423 kts | 256° |
| 2026-05-07 15:03 | 39.18769 | -107.88579 | 36337 ft | 423 kts | 256° |
| 2026-05-07 15:03 | 39.16905 | -107.95778 | 36330 ft | 424 kts | 256° |
| 2026-05-07 15:04 | 39.15030 | -108.02983 | 36332 ft | 424 kts | 256° |
| 2026-05-07 15:04 | 39.13145 | -108.10198 | 36322 ft | 426 kts | 256° |
| 2026-05-07 15:05 | 39.11253 | -108.17431 | 36323 ft | 426 kts | 256° |
| 2026-05-07 15:05 | 39.09358 | -108.24668 | 36314 ft | 427 kts | 256° |
| 2026-05-07 15:06 | 39.07453 | -108.31911 | 36314 ft | 427 kts | 256° |
| 2026-05-07 15:06 | 39.05544 | -108.39144 | 36294 ft | 427 kts | 256° |
| 2026-05-07 15:07 | 39.03626 | -108.46385 | 36290 ft | 428 kts | 256° |
| 2026-05-07 15:07 | 39.01700 | -108.53625 | 36275 ft | 429 kts | 256° |
| 2026-05-07 15:08 | 38.99764 | -108.60889 | 36265 ft | 431 kts | 256° |
| 2026-05-07 15:08 | 38.97818 | -108.68182 | 36269 ft | 432 kts | 256° |
| 2026-05-07 15:09 | 38.95860 | -108.75501 | 36277 ft | 434 kts | 256° |
| 2026-05-07 15:09 | 38.93886 | -108.82841 | 36282 ft | 435 kts | 256° |
| 2026-05-07 15:10 | 38.91906 | -108.90184 | 36293 ft | 435 kts | 256° |
| 2026-05-07 15:10 | 38.89920 | -108.97529 | 36302 ft | 436 kts | 256° |
| 2026-05-07 15:11 | 38.87927 | -109.04893 | 36308 ft | 437 kts | 256° |
| 2026-05-07 15:11 | 38.85931 | -109.12257 | 36306 ft | 437 kts | 256° |
| 2026-05-07 15:12 | 38.83942 | -109.19573 | 36299 ft | 438 kts | 256° |
| 2026-05-07 15:12 | 38.81925 | -109.26940 | 36292 ft | 438 kts | 255° |
| 2026-05-07 15:13 | 38.79902 | -109.34311 | 36287 ft | 439 kts | 255° |
| 2026-05-07 15:13 | 38.77877 | -109.41687 | 36281 ft | 439 kts | 255° |
| 2026-05-07 15:14 | 38.75844 | -109.49077 | 36276 ft | 440 kts | 255° |
| 2026-05-07 15:14 | 38.73803 | -109.56463 | 36266 ft | 440 kts | 255° |
| 2026-05-07 15:15 | 38.71740 | -109.63849 | 36261 ft | 441 kts | 255° |
| 2026-05-07 15:15 | 38.69673 | -109.71246 | 36259 ft | 442 kts | 255° |
| 2026-05-07 15:16 | 38.67606 | -109.78658 | 36257 ft | 443 kts | 255° |
| 2026-05-07 15:16 | 38.65542 | -109.86076 | 36255 ft | 443 kts | 255° |
| 2026-05-07 15:17 | 38.63464 | -109.93501 | 36255 ft | 443 kts | 255° |
| 2026-05-07 15:17 | 38.61372 | -110.00921 | 36259 ft | 444 kts | 254° |
| 2026-05-07 15:18 | 38.59269 | -110.08346 | 36255 ft | 445 kts | 254° |
| 2026-05-07 15:18 | 38.57162 | -110.15787 | 36258 ft | 446 kts | 255° |
| 2026-05-07 15:19 | 38.55054 | -110.23242 | 36264 ft | 446 kts | 254° |
| 2026-05-07 15:19 | 38.52935 | -110.30694 | 36269 ft | 446 kts | 254° |
| 2026-05-07 15:20 | 38.50826 | -110.38087 | 36271 ft | 446 kts | 254° |
| 2026-05-07 15:20 | 38.48700 | -110.45535 | 36270 ft | 446 kts | 254° |
| 2026-05-07 15:21 | 38.46572 | -110.52977 | 36272 ft | 447 kts | 254° |
| 2026-05-07 15:21 | 38.44429 | -110.60418 | 36276 ft | 447 kts | 254° |
| 2026-05-07 15:22 | 38.42245 | -110.67846 | 36277 ft | 449 kts | 250° |
| 2026-05-07 15:22 | 38.38875 | -110.74627 | 36274 ft | 457 kts | 237° |
| 2026-05-07 15:23 | 38.34984 | -110.81058 | 36272 ft | 458 kts | 237° |
| 2026-05-07 15:23 | 38.31095 | -110.87484 | 36271 ft | 458 kts | 237° |
| 2026-05-07 15:24 | 38.27213 | -110.93917 | 36271 ft | 459 kts | 237° |
| 2026-05-07 15:24 | 38.23310 | -111.00353 | 36271 ft | 459 kts | 236° |
| 2026-05-07 15:25 | 38.19427 | -111.06735 | 36273 ft | 460 kts | 236° |
| 2026-05-07 15:25 | 38.15500 | -111.13172 | 36273 ft | 461 kts | 236° |
| 2026-05-07 15:26 | 38.11565 | -111.19599 | 36274 ft | 461 kts | 236° |
| 2026-05-07 15:26 | 38.07622 | -111.26027 | 36272 ft | 462 kts | 236° |
| 2026-05-07 15:27 | 38.03675 | -111.32464 | 36272 ft | 463 kts | 236° |
| 2026-05-07 15:27 | 37.99722 | -111.38909 | 36277 ft | 463 kts | 236° |
| 2026-05-07 15:28 | 37.95757 | -111.45347 | 36277 ft | 464 kts | 235° |
| 2026-05-07 15:28 | 37.91776 | -111.51796 | 36274 ft | 465 kts | 236° |
| 2026-05-07 15:29 | 37.87793 | -111.58240 | 36280 ft | 465 kts | 236° |
| 2026-05-07 15:29 | 37.83804 | -111.64692 | 36283 ft | 466 kts | 235° |
| 2026-05-07 15:30 | 37.79826 | -111.71090 | 36297 ft | 466 kts | 235° |
| 2026-05-07 15:30 | 37.75808 | -111.77533 | 36317 ft | 466 kts | 235° |
| 2026-05-07 15:31 | 37.71790 | -111.83967 | 36318 ft | 467 kts | 235° |
| 2026-05-07 15:31 | 37.67776 | -111.90407 | 36329 ft | 467 kts | 235° |
| 2026-05-07 15:32 | 37.63761 | -111.96842 | 36328 ft | 467 kts | 235° |
| 2026-05-07 15:32 | 37.59736 | -112.03266 | 36332 ft | 467 kts | 235° |
| 2026-05-07 15:33 | 37.55698 | -112.09686 | 36337 ft | 467 kts | 235° |
| 2026-05-07 15:33 | 37.51877 | -112.16261 | 36337 ft | 464 kts | 240° |
| 2026-05-07 15:34 | 37.48383 | -112.23045 | 36331 ft | 465 kts | 240° |
| 2026-05-07 15:34 | 37.44852 | -112.29853 | 36330 ft | 465 kts | 240° |
| 2026-05-07 15:35 | 37.41306 | -112.36671 | 36336 ft | 466 kts | 240° |
| 2026-05-07 15:35 | 37.37760 | -112.43486 | 36330 ft | 466 kts | 240° |
| 2026-05-07 15:36 | 37.34211 | -112.50303 | 36323 ft | 466 kts | 240° |
| 2026-05-07 15:36 | 37.30653 | -112.57120 | 36324 ft | 467 kts | 240° |
| 2026-05-07 15:37 | 37.27083 | -112.63929 | 36300 ft | 467 kts | 240° |
| 2026-05-07 15:37 | 37.23511 | -112.70746 | 36294 ft | 467 kts | 240° |
| 2026-05-07 15:38 | 37.19940 | -112.77549 | 36294 ft | 467 kts | 239° |
| 2026-05-07 15:38 | 37.16365 | -112.84352 | 36288 ft | 467 kts | 239° |
| 2026-05-07 15:39 | 37.12771 | -112.91156 | 36286 ft | 468 kts | 239° |
| 2026-05-07 15:39 | 37.09178 | -112.97955 | 36288 ft | 468 kts | 239° |
| 2026-05-07 15:40 | 37.07378 | -113.01356 | 36172 ft | 469 kts | 239° |
| 2026-05-07 15:40 | 37.05577 | -113.04753 | 35925 ft | 468 kts | 239° |
| 2026-05-07 15:40 | 37.03776 | -113.08146 | 35675 ft | 468 kts | 239° |
| 2026-05-07 15:40 | 37.01973 | -113.11539 | 35427 ft | 469 kts | 239° |
| 2026-05-07 15:41 | 37.00165 | -113.14934 | 35173 ft | 469 kts | 239° |
| 2026-05-07 15:41 | 36.98349 | -113.18343 | 34369 ft | 474 kts | 239° |
| 2026-05-07 15:41 | 36.96507 | -113.21802 | 33423 ft | 481 kts | 239° |
| 2026-05-07 15:41 | 36.94640 | -113.25306 | 32485 ft | 486 kts | 239° |
| 2026-05-07 15:42 | 36.92774 | -113.28808 | 31902 ft | 482 kts | 239° |
| 2026-05-07 15:42 | 36.90939 | -113.32244 | 31277 ft | 480 kts | 239° |
| 2026-05-07 15:42 | 36.89068 | -113.35740 | 30651 ft | 476 kts | 238° |
| 2026-05-07 15:42 | 36.87258 | -113.39119 | 30036 ft | 473 kts | 238° |
| 2026-05-07 15:43 | 36.85437 | -113.42514 | 29427 ft | 469 kts | 238° |
| 2026-05-07 15:43 | 36.83603 | -113.45921 | 28797 ft | 465 kts | 238° |
| 2026-05-07 15:43 | 36.81806 | -113.49254 | 28207 ft | 460 kts | 238° |
| 2026-05-07 15:43 | 36.80034 | -113.52552 | 27627 ft | 455 kts | 238° |
| 2026-05-07 15:44 | 36.78284 | -113.55818 | 27040 ft | 451 kts | 238° |
| 2026-05-07 15:44 | 36.76551 | -113.59057 | 26471 ft | 447 kts | 238° |
| 2026-05-07 15:44 | 36.74856 | -113.62221 | 25929 ft | 442 kts | 238° |
| 2026-05-07 15:44 | 36.73165 | -113.65372 | 25394 ft | 437 kts | 238° |
| 2026-05-07 15:45 | 36.71474 | -113.68517 | 24874 ft | 432 kts | 238° |
| 2026-05-07 15:45 | 36.69811 | -113.71605 | 24364 ft | 427 kts | 238° |
| 2026-05-07 15:45 | 36.68162 | -113.74660 | 23880 ft | 423 kts | 238° |
| 2026-05-07 15:45 | 36.66529 | -113.77682 | 23399 ft | 419 kts | 238° |
| 2026-05-07 15:46 | 36.63340 | -113.83584 | 22461 ft | 411 kts | 238° |
| 2026-05-07 15:46 | 36.61723 | -113.86575 | 21981 ft | 408 kts | 238° |
| 2026-05-07 15:46 | 36.60141 | -113.89492 | 21489 ft | 405 kts | 238° |
| 2026-05-07 15:47 | 36.58565 | -113.92379 | 20998 ft | 402 kts | 237° |
| 2026-05-07 15:47 | 36.56931 | -113.95185 | 20510 ft | 399 kts | 235° |
| 2026-05-07 15:47 | 36.55246 | -113.97923 | 19979 ft | 398 kts | 234° |
| 2026-05-07 15:47 | 36.53540 | -114.00615 | 19472 ft | 395 kts | 233° |
| 2026-05-07 15:48 | 36.51839 | -114.03283 | 18949 ft | 392 kts | 233° |
| 2026-05-07 15:48 | 36.50150 | -114.05939 | 18429 ft | 390 kts | 233° |
| 2026-05-07 15:48 | 36.48473 | -114.08595 | 17763 ft | 392 kts | 233° |
| 2026-05-07 15:48 | 36.46807 | -114.11256 | 17252 ft | 388 kts | 234° |
| 2026-05-07 15:49 | 36.45159 | -114.13899 | 16730 ft | 386 kts | 234° |
| 2026-05-07 15:49 | 36.43529 | -114.16519 | 16369 ft | 379 kts | 234° |
| 2026-05-07 15:49 | 36.41951 | -114.19059 | 16224 ft | 365 kts | 234° |
| 2026-05-07 15:49 | 36.40428 | -114.21512 | 16102 ft | 353 kts | 234° |
| 2026-05-07 15:50 | 36.38949 | -114.23884 | 15973 ft | 342 kts | 233° |
| 2026-05-07 15:50 | 36.37512 | -114.26155 | 15771 ft | 327 kts | 233° |
| 2026-05-07 15:50 | 36.36118 | -114.28339 | 15305 ft | 320 kts | 233° |
| 2026-05-07 15:50 | 36.34744 | -114.30485 | 14769 ft | 316 kts | 233° |
| 2026-05-07 15:51 | 36.33385 | -114.32608 | 14240 ft | 313 kts | 233° |
| 2026-05-07 15:51 | 36.32037 | -114.34720 | 13817 ft | 311 kts | 233° |
| 2026-05-07 15:51 | 36.30699 | -114.36817 | 13427 ft | 309 kts | 233° |
| 2026-05-07 15:51 | 36.29369 | -114.38900 | 13051 ft | 307 kts | 233° |
| 2026-05-07 15:52 | 36.28048 | -114.40968 | 12660 ft | 305 kts | 233° |
| 2026-05-07 15:52 | 36.26736 | -114.43018 | 12279 ft | 302 kts | 233° |
| 2026-05-07 15:52 | 36.25433 | -114.45051 | 11900 ft | 300 kts | 233° |
| 2026-05-07 15:52 | 36.24135 | -114.47061 | 11520 ft | 298 kts | 232° |
| 2026-05-07 15:53 | 36.23274 | -114.48383 | 11269 ft | 296 kts | 232° |
| 2026-05-07 15:53 | 36.21982 | -114.50357 | 10895 ft | 294 kts | 232° |
| 2026-05-07 15:53 | 36.20700 | -114.52317 | 10530 ft | 292 kts | 232° |
| 2026-05-07 15:53 | 36.18990 | -114.54935 | 10039 ft | 291 kts | 231° |
| 2026-05-07 15:54 | 36.18154 | -114.56215 | 9966 ft | 286 kts | 231° |
| 2026-05-07 15:54 | 36.16901 | -114.58131 | 9977 ft | 287 kts | 231° |
| 2026-05-07 15:54 | 36.15235 | -114.60673 | 9465 ft | 287 kts | 231° |
| 2026-05-07 15:54 | 36.14385 | -114.61971 | 9057 ft | 286 kts | 231° |
| 2026-05-07 15:55 | 36.13141 | -114.63869 | 8633 ft | 279 kts | 231° |
| 2026-05-07 15:55 | 36.11919 | -114.65736 | 8462 ft | 280 kts | 231° |
| 2026-05-07 15:55 | 36.10695 | -114.67599 | 8300 ft | 277 kts | 230° |
| 2026-05-07 15:55 | 36.09499 | -114.69418 | 8184 ft | 268 kts | 231° |
| 2026-05-07 15:56 | 36.08352 | -114.71183 | 8083 ft | 259 kts | 234° |
| 2026-05-07 15:56 | 36.07555 | -114.73121 | 7970 ft | 249 kts | 253° |
| 2026-05-07 15:56 | 36.07315 | -114.75221 | 7671 ft | 247 kts | 270° |
| 2026-05-07 15:56 | 36.07323 | -114.77304 | 7511 ft | 239 kts | 270° |
| 2026-05-07 15:57 | 36.07333 | -114.79351 | 7248 ft | 238 kts | 270° |
| 2026-05-07 15:57 | 36.07337 | -114.81394 | 6936 ft | 239 kts | 270° |
| 2026-05-07 15:57 | 36.07341 | -114.83418 | 6626 ft | 239 kts | 270° |
| 2026-05-07 15:57 | 36.07345 | -114.85497 | 6312 ft | 238 kts | 270° |
| 2026-05-07 15:58 | 36.07348 | -114.87545 | 5995 ft | 239 kts | 270° |
| 2026-05-07 15:58 | 36.07352 | -114.89601 | 5662 ft | 239 kts | 270° |
| 2026-05-07 15:58 | 36.07356 | -114.91630 | 5355 ft | 239 kts | 270° |
| 2026-05-07 15:58 | 36.07358 | -114.93683 | 5038 ft | 239 kts | 270° |
| 2026-05-07 15:59 | 36.07360 | -114.95731 | 4720 ft | 238 kts | 270° |
| 2026-05-07 15:59 | 36.07362 | -114.97771 | 4405 ft | 235 kts | 270° |
| 2026-05-07 15:59 | 36.07363 | -114.99739 | 4103 ft | 223 kts | 270° |
| 2026-05-07 15:59 | 36.07364 | -115.01602 | 3836 ft | 210 kts | 270° |
| 2026-05-07 16:00 | 36.07365 | -115.03333 | 3562 ft | 194 kts | 270° |
| 2026-05-07 16:00 | 36.07366 | -115.04950 | 3303 ft | 181 kts | 270° |
| 2026-05-07 16:00 | 36.07366 | -115.06445 | 3063 ft | 167 kts | 270° |
| 2026-05-07 16:00 | 36.07366 | -115.07809 | 2866 ft | 154 kts | 270° |
| 2026-05-07 16:01 | 36.07366 | -115.09121 | 2653 ft | 149 kts | 270° |
| 2026-05-07 16:01 | 36.07365 | -115.10389 | 2452 ft | 147 kts | 270° |
| 2026-05-07 16:01 | 36.07364 | -115.11642 | 2252 ft | 145 kts | 270° |
| 2026-05-07 16:01 | 36.07367 | -115.12892 | 2082 ft | 145 kts | 270° |
| 2026-05-07 16:02 | 36.07367 | -115.13978 | 2082 ft | 103 kts | 270° |
| 2026-05-07 16:02 | 36.07366 | -115.14628 | 2092 ft | 33 kts | 268° |
| 2026-05-07 16:02 | 36.07384 | -115.14804 | 2095 ft | 11 kts | 281° |
| 2026-05-07 16:02 | 36.07407 | -115.14898 | 2097 ft | 12 kts | 290° |
| 2026-05-07 16:03 | 36.07444 | -115.14991 | 2098 ft | 12 kts | 300° |
| 2026-05-07 16:03 | 36.07492 | -115.15083 | 2100 ft | 13 kts | 310° |
| 2026-05-07 16:03 | 36.07556 | -115.15147 | 2106 ft | 10 kts | 330° |
| 2026-05-07 16:03 | 36.07609 | -115.15178 | 2109 ft | 8 kts | 335° |
| 2026-05-07 16:04 | 36.07674 | -115.15216 | 2110 ft | 12 kts | 335° |
| 2026-05-07 16:04 | 36.07768 | -115.15270 | 2104 ft | 18 kts | 335° |
| 2026-05-07 16:04 | 36.07900 | -115.15346 | 2099 ft | 23 kts | 335° |
| 2026-05-07 16:04 | 36.08044 | -115.15430 | 2098 ft | 18 kts | 335° |
| 2026-05-07 16:05 | 36.08157 | -115.15433 | 2098 ft | 15 kts | 13° |
| 2026-05-07 16:05 | 36.08257 | -115.15452 | 2098 ft | 16 kts | 334° |
| 2026-05-07 16:05 | 36.08358 | -115.15511 | 2098 ft | 17 kts | 335° |
| 2026-05-07 16:05 | 36.08450 | -115.15562 | 2099 ft | 6 kts | 340° |
| 2026-05-07 16:06 | 36.08479 | -115.15530 | 2099 ft | 5 kts | 53° |
| 2026-05-07 16:06 | 36.08499 | -115.15491 | 2098 ft | 2 kts | 56° |
| 2026-05-07 16:06 | 36.08504 | -115.15482 | 2098 ft | 1 kts | 56° |
| 2026-05-07 16:06 | 36.08507 | -115.15477 | 2098 ft | 0 kts | 56° |
| 2026-05-07 16:07 | 36.08507 | -115.15476 | 2098 ft | 0 kts | 56° |